首页
METAR-TAF:

METAR-TAF

机场 :

新加坡樟宜机场

新加坡, 新加坡

纬度: 01-22N, 经度: 103-59E, 海拔: 5米

当前天气观测

该预报发布于23分钟前的10:30 UTC
风速6节,风向
温度 29°C
湿度 74%
气压 1008 hPa
能见度10公里或以上
少量云层高于1800英尺
散云层高于4000英尺
多云层高于16000英尺

METAR: WSSS 211030Z 19006KT 9999 FEW018 SCT040 BKN160 29/24 Q1008 NOSIG

时间: 18:53 (10:53 UTC)

预报

该预报发布于2小时和53分钟前的08:00 UTC
预报有效从21日的 08点(UTC)到 22日的 12点(UTC)
风速10节,风向南转西南
能见度10公里或以上
少量云层高于1500英尺
散云层高于2000英尺

TAF: WSSS 210800Z 2108/2212 20010KT 9999 FEW015 SCT020

超过4000个机场的气象观测和天气预报(METAR&TAF报告)。

可查询的气象台以黄色和红色小点在地图上表示。

将鼠标移到小点上方,可查看气象台名称。

然后点击查看天气观测和预报。

如需切换地图:点击带黑十字的绿色按钮放大地图;点击带横线的绿色按钮缩小地图;或者点击绿色箭头查看邻近地区的地图。


METAR-TAF: